Whitelaw, Canada
Current Conditions -  °F | °C
As of 4:00 PM on Monday 24 Nov 2014 (Local Time) from CYPE Reporting Station
Broken Clouds Broken Clouds  
Wind Chill:   Ceiling: 5000
Heat Index: 10°   Visibility: 15mi
Dew Point:   Wind: 6mph
Humidity: 85%   Direction: 60°ENE
Pressure: 29.82"   Gusts: NA
Location:  56.1°N, 118.08°W
Report Text: CYPE 242300Z 06005KT 15SM FEW030 BKN050 BKN150 M12/M14 A2982 RMK SC1SC5AC1 SLP146
Loading
Personal Weather Stations






























Interactive Weather Map New forecast layout! Learn more

10-Day Weather Forecast

Advertisements
Track Severe Weather on mobile